Tuesday, November 21, 2017, 3:48 PM GMT
Back to Local

CWVQ, Ste Anne De Bell 1

Location: , , Canada Lat: 45.433
Local Time: 3:48 PM GMT (15:48 GMT) Lon: -73.933
Time Zone: GMT Elev: 127 ft

Show me the last for .
Show Decoded

2017-11-21 15:00 METAR CWVQ 211500Z AUTO 14006KT 05/M01 RMK AO1 SOG 00 8021 SLP081 T00471013 =
2017-11-21 14:00 METAR CWVQ 211400Z AUTO 01002KT M01/M03 RMK AO1 SOG 00 6021 SLP090 T10111033 =
2017-11-21 13:00 METAR CWVQ 211300Z AUTO 02002KT M03/M04 RMK AO1 SOG 00 8020 SLP096 T10301035 =
2017-11-21 12:00 METAR CWVQ 211200Z AUTO 01003KT M04/M05 RMK AO1 SOG 01 8018 SLP102 T10421053 =
2017-11-21 11:00 METAR CWVQ 211100Z AUTO 02004KT M03/M04 RMK AO1 SOG 00 6015 SLP111 T10311042 =
2017-11-21 10:00 METAR CWVQ 211000Z AUTO 05003KT M03/M04 RMK AO1 SOG 00 6022 SLP116 T10261038 =
2017-11-21 09:00 METAR CWVQ 210900Z AUTO 11005KT M02/M03 RMK AO1 SOG 01 8023 SLP120 T10191034 =
2017-11-21 08:00 METAR CWVQ 210800Z AUTO 12006KT M02/M04 RMK AO1 SOG 01 8024 SLP126 T10221040 =
2017-11-21 07:00 METAR CWVQ 210700Z AUTO 13007KT M03/M05 RMK AO1 SOG 01 7017 SLP138 T10301049 =
2017-11-21 06:00 METAR CWVQ 210600Z AUTO 12005KT M03/M06 RMK AO1 SOG 01 8016 SLP143 T10341063
                 50003 =
2017-11-21 05:00 METAR CWVQ 210500Z AUTO 12003KT M04/M06 RMK AO1 SOG 01 8012 SLP150 T10441055
                 50003 =
2017-11-21 04:00 METAR CWVQ 210400Z AUTO 15001KT M06/M07 RMK AO1 3PAST HR SOG 01 8008 SLP155
                 P0001 T10571066 50003 =
2017-11-21 03:00 METAR CWVQ 210300Z AUTO 14001KT M08/M09 RMK AO1 SOG 01 8002 SLP160 T10811090 =
2017-11-21 02:00 METAR CWVQ 210200Z AUTO 12001KT M09/M10 RMK AO1 SOG 01 0004 SLP163 T10921101 =
2017-11-21 01:00 METAR CWVQ 210100Z AUTO 19001KT M09/M10 RMK AO1 SOG 00 1014 SLP164 T10921104 =
2017-11-21 00:00 METAR CWVQ 210000Z AUTO 22003KT M07/M09 RMK AO1 SOG 00 1021 SLP162 T10701091 =
2017-11-20 23:00 METAR CWVQ 202300Z AUTO 27003KT M07/M10 RMK AO1 SOG 00 3024 SLP159 T10661101 =
2017-11-20 22:00 METAR CWVQ 202200Z AUTO 26006KT M06/M10 RMK AO1 SOG 00 3023 SLP149 T10591099 =
2017-11-20 21:00 METAR CWVQ 202100Z AUTO 26006KT M05/M09 RMK AO1 SOG 00 3016 SLP140 T10531094 =
2017-11-20 20:00 METAR CWVQ 202000Z AUTO 27009KT M05/M10 RMK AO1 SOG 00 3011 SLP134 T10491098 =
2017-11-20 19:00 METAR CWVQ 201900Z AUTO 31007KT M05/M10 RMK AO1 SOG 00 3003 SLP126 T10541098 =
2017-11-20 18:00 METAR CWVQ 201800Z AUTO 31009G16KT M06/M09 RMK AO1 SOG 00 5001 PK WND 26019/1743
                 SLP124 T10581092 =
2017-11-20 17:00 METAR CWVQ 201700Z AUTO 28011G17KT M06/M10 RMK AO1 SOG 00 0000 PK WND 24022/1610
                 SLP123 T10571095 =
2017-11-20 16:00 METAR CWVQ 201600Z AUTO 26011G19KT M05/M09 RMK AO1 SOG 00 0007 PK WND 26023/1502
                 SLP123 T10531092 =

Support USWX by starting your Amazon purchase here.